Royal Prince — WCX8037 — position and weather

sailwx.info

Track history (hours):
 
Tides and Currents Weather Stations Pressure Air Temp Water Temp Dewpoint Dewpoint Depression Visibility Wind Speed Wind Dir Waves Ship Positions

Royal Prince

Owner: Golden Gate Scenic Steamship Corp, SAN FRANCISCO, CA. More information available from US FCC via Universal Licensing System and Coast Guard Vessel Documentation Center.

Last reported at 2015-Jan-31 22:33 UTC. Time now 2015-Jan-31 22:42 UTC.
Position N 37°49' W 122°25'.

Length 28 m; draft 2.3 m.

Type: Passenger vessel. MMSI: 366975760.

Date/timePositionNaut miles runAvg speedWind from/ knotsBaromVisibWave heightAir tempDewpointWater temp
2015-Jan-31 22:33N 37°49' W 122°25'3 3.0
2015-Jan-31 21:33N 37°49' W 122°29'3 3.0
2015-Jan-31 20:33N 37°49' W 122°25'1 1.0
2015-Jan-31 19:33N 37°49' W 122°26'1 1.0
2015-Jan-31 18:33N 37°50' W 122°27'2 1.9
2015-Jan-31 17:33N 37°49' W 122°25'0 0.0
2015-Jan-31 03:33N 37°49' W 122°25'2 2.1
2015-Jan-31 02:34N 37°50' W 122°23'2 2.1
2015-Jan-31 01:33N 37°49' W 122°25'1 0.6
2015-Jan-31 00:33N 37°49' W 122°24'1 0.6
2015-Jan-30 23:33N 37°49' W 122°25'0 0.0
2015-Jan-30 22:33N 37°49' W 122°25'3 2.6
2015-Jan-30 21:33N 37°49' W 122°28'3 2.6
2015-Jan-30 20:33N 37°49' W 122°25'2 2.2
2015-Jan-30 19:33N 37°49' W 122°28'1 1.1
2015-Jan-30 18:33N 37°50' W 122°27'2 0.1
2015-Jan-30 03:32N 37°49' W 122°25'2 2.5
2015-Jan-30 02:33N 37°50' W 122°23'2 2.4
2015-Jan-30 01:33N 37°49' W 122°25'1 0.9
2015-Jan-30 00:33N 37°49' W 122°25'1 0.9
2015-Jan-29 23:33N 37°49' W 122°25'0 0.0
2015-Jan-29 22:33N 37°49' W 122°25'3 3.1
2015-Jan-29 21:33N 37°49' W 122°29'3 3.1
2015-Jan-29 20:34N 37°49' W 122°25'2 1.9
2015-Jan-29 19:33N 37°49' W 122°27'1 0.5
2015-Jan-29 18:33N 37°49' W 122°27'2 2.1
2015-Jan-29 17:33N 37°49' W 122°25'2 0.1
2015-Jan-28 23:33N 37°50' W 122°27'2 1.8
2015-Jan-28 22:33N 37°49' W 122°25'0 0.2
2015-Jan-28 21:33N 37°49' W 122°25'2 2.4
2015-Jan-28 20:33N 37°49' W 122°28'2 2.4
2015-Jan-28 19:33N 37°49' W 122°25'0 0.0
2015-Jan-28 18:33N 37°49' W 122°25'0 0.0
2015-Jan-28 00:05N 37°49' W 122°25'2 3.4
2015-Jan-27 23:33N 37°50' W 122°27'2 2.1
2015-Jan-27 22:33N 37°49' W 122°24'0 0.5
2015-Jan-27 21:33N 37°49' W 122°25'2 1.9
2015-Jan-27 20:33N 37°50' W 122°27'2 0.1
2015-Jan-27 03:33N 37°49' W 122°25'3 2.7
2015-Jan-27 02:33N 37°50' W 122°22'3 2.7
2015-Jan-27 01:33N 37°49' W 122°25'1 0.6
2015-Jan-27 00:33N 37°49' W 122°24'1 0.6
2015-Jan-26 23:33N 37°49' W 122°25'0 0.1
2015-Jan-26 22:33N 37°49' W 122°25'3 3.0
2015-Jan-26 21:33N 37°49' W 122°29'3 3.1
2015-Jan-26 20:33N 37°49' W 122°25'2 2.1
2015-Jan-26 19:33N 37°49' W 122°28'1 0.8
2015-Jan-26 18:33N 37°49' W 122°27'2 2.0
2015-Jan-26 17:33N 37°49' W 122°25'0 0.0
2015-Jan-26 16:33N 37°49' W 122°25'0 0.0
2015-Jan-26 03:33N 37°49' W 122°25'3 2.8
2015-Jan-26 02:33N 37°49' W 122°22'3 2.9
2015-Jan-26 01:33N 37°49' W 122°25'1 0.9
2015-Jan-26 00:33N 37°50' W 122°25'1 1.1
2015-Jan-25 23:33N 37°49' W 122°25'0 0.0
2015-Jan-25 22:33N 37°49' W 122°25'2 2.1
2015-Jan-25 21:33N 37°49' W 122°28'2 2.1
2015-Jan-25 20:33N 37°49' W 122°25'1 1.3
2015-Jan-25 19:33N 37°49' W 122°27'1 1.0
2015-Jan-25 18:33N 37°49' W 122°28'2 0.2
2015-Jan-25 03:33N 37°49' W 122°25'3 2.6
2015-Jan-25 02:33N 37°50' W 122°22'3 2.6
2015-Jan-25 01:33N 37°49' W 122°25'1 0.6
2015-Jan-25 00:33N 37°49' W 122°25'1 0.6
2015-Jan-24 23:33N 37°49' W 122°25'0 0.0
2015-Jan-24 22:33N 37°49' W 122°25'3 2.8
2015-Jan-24 21:33N 37°49' W 122°28'3 2.8
2015-Jan-24 20:33N 37°49' W 122°25'2 2.1
2015-Jan-24 19:33N 37°49' W 122°28'1 0.7
2015-Jan-24 18:33N 37°49' W 122°27'2 1.8
2015-Jan-24 17:33N 37°49' W 122°25'0 0.0
2015-Jan-24 03:33N 37°49' W 122°25'3 2.7
2015-Jan-24 02:33N 37°50' W 122°22'3 2.7
2015-Jan-24 01:33N 37°49' W 122°25'1 0.8
2015-Jan-24 00:33N 37°49' W 122°25'1 0.8
2015-Jan-23 23:33N 37°49' W 122°25'0 0.0
2015-Jan-23 22:33N 37°49' W 122°25'3 3.0
2015-Jan-23 21:33N 37°49' W 122°29'3 3.0
2015-Jan-23 20:33N 37°49' W 122°25'2 2.0
2015-Jan-23 19:33N 37°49' W 122°27'1 0.8
2015-Jan-23 18:33N 37°49' W 122°27'2 1.7
2015-Jan-23 17:33N 37°49' W 122°25'0 0.0
2015-Jan-23 06:25N 37°49' W 122°25'2 2.5
2015-Jan-23 05:33N 37°47' W 122°23'3 3.1
2015-Jan-23 04:34N 37°50' W 122°23'4 4.0
2015-Jan-23 03:33N 37°50' W 122°28'5 5.1
2015-Jan-23 02:33N 37°47' W 122°23'0 0.0
2015-Jan-23 01:33N 37°47' W 122°23'2 2.2
2015-Jan-23 00:33N 37°49' W 122°25'0 0.0
2015-Jan-22 00:10N 37°49' W 122°25'2 3.5
2015-Jan-21 23:33N 37°50' W 122°27'2 3.0
2015-Jan-21 22:50N 37°49' W 122°25'0 0.0
2015-Jan-21 22:46N 37°49' W 122°25'  
Track history (hours):
 
Tides and Currents Weather Stations Pressure Air Temp Water Temp Dewpoint Dewpoint Depression Visibility Wind Speed Wind Dir Waves Ship Positions

Royal Prince

Owner: Golden Gate Scenic Steamship Corp, SAN FRANCISCO, CA. More information available from US FCC via Universal Licensing System and Coast Guard Vessel Documentation Center.

Last reported at 2015-Jan-31 22:33 UTC. Time now 2015-Jan-31 22:42 UTC.
Position N 37°49' W 122°25'.

Length 28 m; draft 2.3 m.

Type: Passenger vessel. MMSI: 366975760.

Date/timePositionNaut miles runAvg speedWind from/ knotsBaromVisibWave heightAir tempDewpointWater temp
2015-Jan-31 22:33N 37°49' W 122°25'3 3.0
2015-Jan-31 21:33N 37°49' W 122°29'3 3.0
2015-Jan-31 20:33N 37°49' W 122°25'1 1.0
2015-Jan-31 19:33N 37°49' W 122°26'1 1.0
2015-Jan-31 18:33N 37°50' W 122°27'2 1.9
2015-Jan-31 17:33N 37°49' W 122°25'0 0.0
2015-Jan-31 03:33N 37°49' W 122°25'2 2.1
2015-Jan-31 02:34N 37°50' W 122°23'2 2.1
2015-Jan-31 01:33N 37°49' W 122°25'1 0.6
2015-Jan-31 00:33N 37°49' W 122°24'1 0.6
2015-Jan-30 23:33N 37°49' W 122°25'0 0.0
2015-Jan-30 22:33N 37°49' W 122°25'3 2.6
2015-Jan-30 21:33N 37°49' W 122°28'3 2.6
2015-Jan-30 20:33N 37°49' W 122°25'2 2.2
2015-Jan-30 19:33N 37°49' W 122°28'1 1.1
2015-Jan-30 18:33N 37°50' W 122°27'2 0.1
2015-Jan-30 03:32N 37°49' W 122°25'2 2.5
2015-Jan-30 02:33N 37°50' W 122°23'2 2.4
2015-Jan-30 01:33N 37°49' W 122°25'1 0.9
2015-Jan-30 00:33N 37°49' W 122°25'1 0.9
2015-Jan-29 23:33N 37°49' W 122°25'0 0.0
2015-Jan-29 22:33N 37°49' W 122°25'3 3.1
2015-Jan-29 21:33N 37°49' W 122°29'3 3.1
2015-Jan-29 20:34N 37°49' W 122°25'2 1.9
2015-Jan-29 19:33N 37°49' W 122°27'1 0.5
2015-Jan-29 18:33N 37°49' W 122°27'2 2.1
2015-Jan-29 17:33N 37°49' W 122°25'2 0.1
2015-Jan-28 23:33N 37°50' W 122°27'2 1.8
2015-Jan-28 22:33N 37°49' W 122°25'0 0.2
2015-Jan-28 21:33N 37°49' W 122°25'2 2.4
2015-Jan-28 20:33N 37°49' W 122°28'2 2.4
2015-Jan-28 19:33N 37°49' W 122°25'0 0.0
2015-Jan-28 18:33N 37°49' W 122°25'0 0.0
2015-Jan-28 00:05N 37°49' W 122°25'2 3.4
2015-Jan-27 23:33N 37°50' W 122°27'2 2.1
2015-Jan-27 22:33N 37°49' W 122°24'0 0.5
2015-Jan-27 21:33N 37°49' W 122°25'2 1.9
2015-Jan-27 20:33N 37°50' W 122°27'2 0.1
2015-Jan-27 03:33N 37°49' W 122°25'3 2.7
2015-Jan-27 02:33N 37°50' W 122°22'3 2.7
2015-Jan-27 01:33N 37°49' W 122°25'1 0.6
2015-Jan-27 00:33N 37°49' W 122°24'1 0.6
2015-Jan-26 23:33N 37°49' W 122°25'0 0.1
2015-Jan-26 22:33N 37°49' W 122°25'3 3.0
2015-Jan-26 21:33N 37°49' W 122°29'3 3.1
2015-Jan-26 20:33N 37°49' W 122°25'2 2.1
2015-Jan-26 19:33N 37°49' W 122°28'1 0.8
2015-Jan-26 18:33N 37°49' W 122°27'2 2.0
2015-Jan-26 17:33N 37°49' W 122°25'0 0.0
2015-Jan-26 16:33N 37°49' W 122°25'0 0.0
2015-Jan-26 03:33N 37°49' W 122°25'3 2.8
2015-Jan-26 02:33N 37°49' W 122°22'3 2.9
2015-Jan-26 01:33N 37°49' W 122°25'1 0.9
2015-Jan-26 00:33N 37°50' W 122°25'1 1.1
2015-Jan-25 23:33N 37°49' W 122°25'0 0.0
2015-Jan-25 22:33N 37°49' W 122°25'2 2.1
2015-Jan-25 21:33N 37°49' W 122°28'2 2.1
2015-Jan-25 20:33N 37°49' W 122°25'1 1.3
2015-Jan-25 19:33N 37°49' W 122°27'1 1.0
2015-Jan-25 18:33N 37°49' W 122°28'2 0.2
2015-Jan-25 03:33N 37°49' W 122°25'3 2.6
2015-Jan-25 02:33N 37°50' W 122°22'3 2.6
2015-Jan-25 01:33N 37°49' W 122°25'1 0.6
2015-Jan-25 00:33N 37°49' W 122°25'1 0.6
2015-Jan-24 23:33N 37°49' W 122°25'0 0.0
2015-Jan-24 22:33N 37°49' W 122°25'3 2.8
2015-Jan-24 21:33N 37°49' W 122°28'3 2.8
2015-Jan-24 20:33N 37°49' W 122°25'2 2.1
2015-Jan-24 19:33N 37°49' W 122°28'1 0.7
2015-Jan-24 18:33N 37°49' W 122°27'2 1.8
2015-Jan-24 17:33N 37°49' W 122°25'0 0.0
2015-Jan-24 03:33N 37°49' W 122°25'3 2.7
2015-Jan-24 02:33N 37°50' W 122°22'3 2.7
2015-Jan-24 01:33N 37°49' W 122°25'1 0.8
2015-Jan-24 00:33N 37°49' W 122°25'1 0.8
2015-Jan-23 23:33N 37°49' W 122°25'0 0.0
2015-Jan-23 22:33N 37°49' W 122°25'3 3.0
2015-Jan-23 21:33N 37°49' W 122°29'3 3.0
2015-Jan-23 20:33N 37°49' W 122°25'2 2.0
2015-Jan-23 19:33N 37°49' W 122°27'1 0.8
2015-Jan-23 18:33N 37°49' W 122°27'2 1.7
2015-Jan-23 17:33N 37°49' W 122°25'0 0.0
2015-Jan-23 06:25N 37°49' W 122°25'2 2.5
2015-Jan-23 05:33N 37°47' W 122°23'3 3.1
2015-Jan-23 04:34N 37°50' W 122°23'4 4.0
2015-Jan-23 03:33N 37°50' W 122°28'5 5.1
2015-Jan-23 02:33N 37°47' W 122°23'0 0.0
2015-Jan-23 01:33N 37°47' W 122°23'2 2.2
2015-Jan-23 00:33N 37°49' W 122°25'0 0.0
2015-Jan-22 00:10N 37°49' W 122°25'2 3.5
2015-Jan-21 23:33N 37°50' W 122°27'2 3.0
2015-Jan-21 22:50N 37°49' W 122°25'0 0.0
2015-Jan-21 22:46N 37°49' W 122°25'  

Dump ship's entire track history